Time;durP1;ratioP1;P1;durP2;ratioP2;P2;SDS_P1;SDS_P2;PMS_P1;PMS_P2;Temp;Humidity;BMP_temperature;BMP_pressure;BME280_temperature;BME280_humidity;BME280_pressure;Samples;Min_cycle;Max_cycle;Signal;HPM_P1;HPM_P2
2021/04/18 00:00:38;;;;;;;;;;;2.40;97.10;;;;;;5016543;28;20016;-69
2021/04/18 00:03:04;;;;;;;;;;;2.40;96.60;;;;;;5000285;28;19914;-69
2021/04/18 00:05:30;;;;;;;;;;;2.50;96.80;;;;;;4995306;28;19922;-69
2021/04/18 00:08:02;;;;;;;;;;;2.50;97.10;;;;;;5015423;28;19928;-70
2021/04/18 00:10:34;;;;;;;;;;;2.50;97.10;;;;;;5012565;28;20012;-69
2021/04/18 00:13:01;;;;;;;;;;;2.40;97.00;;;;;;5018624;28;19914;-69
2021/04/18 00:15:27;;;;;;;;;;;2.50;97.00;;;;;;5015771;28;19913;-70
2021/04/18 00:17:52;;;;;;;;;;;2.40;97.10;;;;;;5022161;28;20439;-69
2021/04/18 00:20:18;;;;;;;;;;;2.40;97.00;;;;;;5014676;28;20319;-68
2021/04/18 00:22:44;;;;;;;;;;;2.40;97.00;;;;;;5025762;28;20218;-67
2021/04/18 00:25:11;;;;;;;;;;;2.50;97.00;;;;;;5037859;28;19916;-70
2021/04/18 00:27:37;;;;;;;;;;;2.50;96.70;;;;;;5025772;28;19914;-70
2021/04/18 00:30:07;;;;;;;;;;;2.50;97.00;;;;;;5020476;28;19922;-69
2021/04/18 00:32:33;;;;;;;;;;;2.60;96.80;;;;;;5023763;28;20416;-68
2021/04/18 00:34:59;;;;;;;;;;;2.70;96.80;;;;;;5030537;28;19914;-68
2021/04/18 00:37:24;;;;;;;;;;;2.70;97.10;;;;;;5018749;28;20298;-70
2021/04/18 00:39:51;;;;;;;;;;;2.60;97.10;;;;;;5024106;28;19921;-69
2021/04/18 00:42:19;;;;;;;;;;;2.60;96.90;;;;;;5021062;28;19917;-71
2021/04/18 00:44:44;;;;;;;;;;;2.60;97.00;;;;;;5016562;28;20019;-70
2021/04/18 00:47:11;;;;;;;;;;;2.60;97.20;;;;;;5026678;28;20298;-70
2021/04/18 00:49:36;;;;;;;;;;;2.60;97.30;;;;;;4999747;28;20251;-70
2021/04/18 00:52:02;;;;;;;;;;;2.60;97.20;;;;;;5021846;28;19921;-70
2021/04/18 00:54:28;;;;;;;;;;;2.50;97.10;;;;;;5030828;28;19975;-70
2021/04/18 00:56:53;;;;;;;;;;;2.60;97.30;;;;;;5027149;28;20277;-70
2021/04/18 00:59:21;;;;;;;;;;;2.60;97.10;;;;;;5019971;28;20020;-70
2021/04/18 01:01:47;;;;;;;;;;;2.50;97.20;;;;;;5021685;28;19953;-69
2021/04/18 01:04:18;;;;;;;;;;;2.50;97.20;;;;;;5022202;28;20015;-70
2021/04/18 01:06:44;;;;;;;;;;;2.50;97.20;;;;;;5018445;28;20007;-70
2021/04/18 01:09:12;;;;;;;;;;;2.50;97.00;;;;;;5019882;28;20005;-71
2021/04/18 01:11:37;;;;;;;;;;;2.50;97.10;;;;;;5019535;28;19924;-70
2021/04/18 01:14:03;;;;;;;;;;;2.50;97.20;;;;;;5004180;28;19914;-68
2021/04/18 01:16:28;;;;;;;;;;;2.50;96.70;;;;;;5003233;28;20000;-69
2021/04/18 01:18:54;;;;;;;;;;;2.50;97.20;;;;;;5021516;28;19964;-70
2021/04/18 01:21:21;;;;;;;;;;;2.50;97.10;;;;;;5019060;28;20727;-69
2021/04/18 01:23:46;;;;;;;;;;;2.50;97.10;;;;;;5001045;28;19920;-70
2021/04/18 01:26:13;;;;;;;;;;;2.40;97.20;;;;;;5018302;28;20012;-68
2021/04/18 01:28:39;;;;;;;;;;;2.40;96.80;;;;;;5023552;28;19925;-68
2021/04/18 01:31:05;;;;;;;;;;;2.50;97.10;;;;;;5017357;28;20342;-68
2021/04/18 01:33:31;;;;;;;;;;;2.50;97.10;;;;;;5020194;28;19913;-70
2021/04/18 01:35:56;;;;;;;;;;;2.50;97.00;;;;;;5022618;28;20339;-70
2021/04/18 01:38:22;;;;;;;;;;;2.50;97.10;;;;;;5015520;28;19925;-68
2021/04/18 01:40:48;;;;;;;;;;;2.50;96.70;;;;;;5003309;28;20004;-67
2021/04/18 01:43:14;;;;;;;;;;;2.50;97.00;;;;;;5013634;28;19925;-68
2021/04/18 01:45:40;;;;;;;;;;;2.50;97.10;;;;;;5020911;28;19917;-67
2021/04/18 01:48:09;;;;;;;;;;;2.50;97.10;;;;;;5018805;28;19917;-67
2021/04/18 01:50:39;;;;;;;;;;;2.40;97.00;;;;;;5016749;28;20063;-67
2021/04/18 01:53:04;;;;;;;;;;;2.40;97.00;;;;;;5023064;28;19917;-67
2021/04/18 01:55:30;;;;;;;;;;;2.40;96.60;;;;;;5022624;28;20229;-67
2021/04/18 01:57:55;;;;;;;;;;;2.50;97.10;;;;;;5024314;28;19921;-67
2021/04/18 02:00:21;;;;;;;;;;;2.40;97.00;;;;;;5022624;28;20238;-67
2021/04/18 02:02:48;;;;;;;;;;;2.50;96.70;;;;;;5023752;28;20333;-68
2021/04/18 02:05:14;;;;;;;;;;;2.50;96.70;;;;;;5005870;28;19913;-67
2021/04/18 02:07:41;;;;;;;;;;;2.50;96.80;;;;;;5023508;28;19929;-68
2021/04/18 02:10:07;;;;;;;;;;;2.60;97.00;;;;;;4997820;28;19918;-68
2021/04/18 02:12:32;;;;;;;;;;;2.50;97.20;;;;;;5017586;28;20019;-68
2021/04/18 02:14:58;;;;;;;;;;;2.50;97.00;;;;;;5019630;28;19928;-68
2021/04/18 02:17:23;;;;;;;;;;;2.40;97.10;;;;;;5022392;28;19913;-68
2021/04/18 02:19:49;;;;;;;;;;;2.40;97.00;;;;;;5004964;28;19921;-68
2021/04/18 02:22:14;;;;;;;;;;;2.30;96.60;;;;;;5018427;28;19913;-67
2021/04/18 02:24:40;;;;;;;;;;;2.30;96.70;;;;;;5022145;28;19921;-67
2021/04/18 02:27:06;;;;;;;;;;;2.40;96.70;;;;;;5001014;28;19921;-67
2021/04/18 02:29:31;;;;;;;;;;;2.30;96.80;;;;;;5019770;28;19914;-68
2021/04/18 02:31:57;;;;;;;;;;;2.30;96.70;;;;;;5021310;28;19917;-67
2021/04/18 02:34:22;;;;;;;;;;;2.30;96.80;;;;;;5020839;28;19920;-67
2021/04/18 02:36:51;;;;;;;;;;;2.30;96.70;;;;;;5016645;28;19963;-68
2021/04/18 02:39:16;;;;;;;;;;;2.30;96.50;;;;;;5020420;28;19926;-66
2021/04/18 02:41:42;;;;;;;;;;;2.30;96.60;;;;;;5017427;28;19963;-70
2021/04/18 02:44:08;;;;;;;;;;;2.30;96.60;;;;;;5015379;28;19948;-67
2021/04/18 02:46:35;;;;;;;;;;;2.40;96.60;;;;;;5023027;28;19914;-69
2021/04/18 02:49:02;;;;;;;;;;;2.40;96.80;;;;;;5017934;28;19921;-68
2021/04/18 02:51:29;;;;;;;;;;;2.30;96.50;;;;;;4990860;28;19963;-69
2021/04/18 02:53:58;;;;;;;;;;;2.40;96.70;;;;;;5010293;28;20314;-69
2021/04/18 02:56:23;;;;;;;;;;;2.30;96.50;;;;;;5011363;28;19921;-69
2021/04/18 02:58:49;;;;;;;;;;;2.30;96.40;;;;;;5011316;28;19956;-70
2021/04/18 03:01:14;;;;;;;;;;;2.30;96.40;;;;;;5009805;28;19922;-70
2021/04/18 03:03:40;;;;;;;;;;;2.40;96.50;;;;;;5009193;28;19944;-70
2021/04/18 03:06:05;;;;;;;;;;;2.40;96.30;;;;;;5009879;28;20306;-70
2021/04/18 03:08:31;;;;;;;;;;;2.50;96.40;;;;;;5008391;28;19925;-70
2021/04/18 03:10:57;;;;;;;;;;;2.50;96.30;;;;;;5010335;28;19936;-69
2021/04/18 03:13:22;;;;;;;;;;;2.40;96.40;;;;;;5010413;28;20447;-70
2021/04/18 03:15:48;;;;;;;;;;;2.40;96.50;;;;;;5009368;28;19925;-69
2021/04/18 03:18:13;;;;;;;;;;;2.40;96.60;;;;;;4991489;28;19984;-70
2021/04/18 03:20:39;;;;;;;;;;;2.40;96.40;;;;;;5010112;28;20007;-68
2021/04/18 03:23:04;;;;;;;;;;;2.40;96.40;;;;;;5012146;28;19913;-69
2021/04/18 03:25:30;;;;;;;;;;;2.50;96.70;;;;;;5011100;28;19917;-69
2021/04/18 03:27:55;;;;;;;;;;;2.40;96.50;;;;;;5012901;28;19957;-70
2021/04/18 03:30:21;;;;;;;;;;;2.40;96.60;;;;;;5013487;28;19918;-70
2021/04/18 03:32:49;;;;;;;;;;;2.30;96.80;;;;;;5014432;28;20004;-68
2021/04/18 03:35:15;;;;;;;;;;;2.30;96.80;;;;;;5014504;28;20570;-70
2021/04/18 03:37:41;;;;;;;;;;;2.20;96.60;;;;;;5012818;28;19917;-68
2021/04/18 03:40:07;;;;;;;;;;;2.20;96.50;;;;;;5014852;28;19916;-69
2021/04/18 03:42:33;;;;;;;;;;;2.20;96.40;;;;;;5012851;28;19913;-70
2021/04/18 03:44:58;;;;;;;;;;;2.20;96.40;;;;;;5013844;28;19913;-69
2021/04/18 03:47:24;;;;;;;;;;;2.20;96.50;;;;;;5012023;28;20055;-70
2021/04/18 03:49:49;;;;;;;;;;;2.20;96.30;;;;;;5009914;28;19922;-70
2021/04/18 03:52:15;;;;;;;;;;;2.20;96.40;;;;;;5008631;28;20401;-70
2021/04/18 03:54:40;;;;;;;;;;;2.20;96.30;;;;;;5017458;28;19921;-69
2021/04/18 03:57:06;;;;;;;;;;;2.20;96.50;;;;;;5013567;28;19914;-68
2021/04/18 03:59:32;;;;;;;;;;;2.20;96.30;;;;;;5013643;28;19917;-69
2021/04/18 04:01:57;;;;;;;;;;;2.10;96.40;;;;;;4992965;28;20566;-70
2021/04/18 04:04:23;;;;;;;;;;;2.10;96.30;;;;;;5017014;28;19932;-69
2021/04/18 04:06:52;;;;;;;;;;;2.20;96.40;;;;;;5017160;28;19921;-69
2021/04/18 04:09:18;;;;;;;;;;;2.30;96.30;;;;;;5019458;28;19921;-70
2021/04/18 04:11:43;;;;;;;;;;;2.20;96.60;;;;;;4998228;28;19921;-69
2021/04/18 04:14:09;;;;;;;;;;;2.30;96.10;;;;;;5014916;28;19914;-70
2021/04/18 04:16:34;;;;;;;;;;;2.30;96.30;;;;;;5017440;28;20222;-69
2021/04/18 04:19:00;;;;;;;;;;;2.30;96.20;;;;;;5018798;28;19936;-69
2021/04/18 04:21:25;;;;;;;;;;;2.30;96.70;;;;;;5018245;28;19928;-68
2021/04/18 04:23:54;;;;;;;;;;;2.30;96.50;;;;;;5019721;28;19991;-68
2021/04/18 04:26:20;;;;;;;;;;;2.30;96.50;;;;;;5022864;28;19983;-68
2021/04/18 04:28:45;;;;;;;;;;;2.30;96.60;;;;;;4998887;28;20384;-69
2021/04/18 04:31:11;;;;;;;;;;;2.30;96.50;;;;;;5015400;28;20191;-69
2021/04/18 04:33:37;;;;;;;;;;;2.30;96.70;;;;;;5015774;28;21379;-70
2021/04/18 04:36:04;;;;;;;;;;;2.30;96.60;;;;;;5020374;28;20334;-69
2021/04/18 04:38:30;;;;;;;;;;;2.30;96.20;;;;;;5016848;28;19925;-69
2021/04/18 04:40:58;;;;;;;;;;;2.40;96.80;;;;;;5014872;28;19967;-69
2021/04/18 04:43:24;;;;;;;;;;;2.30;96.80;;;;;;5012626;28;19929;-68
2021/04/18 04:45:49;;;;;;;;;;;2.30;96.70;;;;;;5012951;28;20230;-69
2021/04/18 04:48:15;;;;;;;;;;;2.30;96.60;;;;;;4995777;28;19928;-68
2021/04/18 04:50:40;;;;;;;;;;;2.30;96.40;;;;;;5004897;28;20008;-70
2021/04/18 04:53:06;;;;;;;;;;;2.30;96.40;;;;;;5017843;28;19925;-70
2021/04/18 04:55:31;;;;;;;;;;;2.30;96.70;;;;;;5010843;28;19920;-70
2021/04/18 04:57:57;;;;;;;;;;;2.30;96.70;;;;;;5005635;28;19933;-70
2021/04/18 05:00:22;;;;;;;;;;;2.30;96.70;;;;;;5011598;28;20035;-72
2021/04/18 05:02:52;;;;;;;;;;;2.30;96.60;;;;;;5005449;28;21245;-70
2021/04/18 05:05:18;;;;;;;;;;;2.40;96.50;;;;;;5007549;28;19922;-69
2021/04/18 05:07:43;;;;;;;;;;;2.40;96.80;;;;;;5005439;28;20255;-69
2021/04/18 05:10:09;;;;;;;;;;;2.40;96.70;;;;;;5007936;28;19921;-70
2021/04/18 05:12:35;;;;;;;;;;;2.40;96.70;;;;;;5001508;28;19918;-70
2021/04/18 05:15:01;;;;;;;;;;;2.40;96.90;;;;;;5002057;28;19960;-69
2021/04/18 05:17:26;;;;;;;;;;;2.40;96.90;;;;;;5002120;28;19917;-70
2021/04/18 05:19:52;;;;;;;;;;;2.40;96.90;;;;;;5002049;28;20008;-71
2021/04/18 05:22:18;;;;;;;;;;;2.40;96.70;;;;;;5002709;28;20340;-71
2021/04/18 05:24:43;;;;;;;;;;;2.40;97.10;;;;;;5006125;28;20397;-70
2021/04/18 05:27:12;;;;;;;;;;;2.50;97.00;;;;;;5010046;28;19913;-70
2021/04/18 05:29:37;;;;;;;;;;;2.50;97.20;;;;;;5009067;28;19925;-69
2021/04/18 05:32:03;;;;;;;;;;;2.50;97.30;;;;;;5006926;28;19914;-70
2021/04/18 05:34:29;;;;;;;;;;;2.40;97.50;;;;;;5007911;28;19921;-71
2021/04/18 05:36:54;;;;;;;;;;;2.30;97.40;;;;;;5007255;28;19925;-71
2021/04/18 05:39:21;;;;;;;;;;;2.20;97.30;;;;;;4994879;28;19917;-69
2021/04/18 05:41:47;;;;;;;;;;;2.20;97.40;;;;;;5002697;28;19921;-70
2021/04/18 05:44:14;;;;;;;;;;;2.10;97.00;;;;;;5003893;28;19921;-71
2021/04/18 05:46:43;;;;;;;;;;;2.10;97.30;;;;;;5007862;28;19984;-71
2021/04/18 05:49:09;;;;;;;;;;;2.10;97.00;;;;;;4990191;28;19959;-71
2021/04/18 05:51:34;;;;;;;;;;;2.10;97.50;;;;;;5006849;28;19940;-70
2021/04/18 05:54:00;;;;;;;;;;;2.00;97.30;;;;;;5009072;28;19925;-72
2021/04/18 05:56:26;;;;;;;;;;;2.00;97.00;;;;;;5005069;28;19921;-72
2021/04/18 05:58:51;;;;;;;;;;;2.10;96.80;;;;;;4998754;28;19956;-71
2021/04/18 06:01:22;;;;;;;;;;;2.20;97.10;;;;;;5003718;28;19918;-71
2021/04/18 06:03:48;;;;;;;;;;;2.20;97.00;;;;;;5013098;28;21219;-72
2021/04/18 06:06:13;;;;;;;;;;;2.10;97.00;;;;;;5015376;28;20328;-69
2021/04/18 06:08:39;;;;;;;;;;;2.10;97.30;;;;;;5020259;28;19958;-69
2021/04/18 06:11:05;;;;;;;;;;;2.30;97.00;;;;;;5000437;28;19921;-68
2021/04/18 06:13:30;;;;;;;;;;;2.40;97.40;;;;;;5015709;28;19922;-71
2021/04/18 06:15:56;;;;;;;;;;;2.40;97.30;;;;;;5017182;28;21693;-71
2021/04/18 06:18:21;;;;;;;;;;;2.40;97.70;;;;;;5009222;28;19932;-69
2021/04/18 06:20:49;;;;;;;;;;;2.50;97.50;;;;;;5011927;28;19940;-69
2021/04/18 06:23:25;;;;;;;;;;;2.60;97.50;;;;;;5010992;28;19920;-69
2021/04/18 06:25:53;;;;;;;;;;;2.60;97.50;;;;;;4989387;28;19913;-69
2021/04/18 06:28:19;;;;;;;;;;;2.70;97.70;;;;;;5015050;28;19921;-70
2021/04/18 06:30:45;;;;;;;;;;;2.70;97.40;;;;;;5009975;28;19932;-70
2021/04/18 06:33:11;;;;;;;;;;;2.80;98.00;;;;;;4998709;28;20016;-69
2021/04/18 06:35:36;;;;;;;;;;;2.80;97.70;;;;;;5014900;28;19925;-72
2021/04/18 06:38:02;;;;;;;;;;;2.80;97.80;;;;;;5012772;28;19918;-70
2021/04/18 06:40:27;;;;;;;;;;;2.90;97.60;;;;;;5009379;28;19945;-72
2021/04/18 06:42:54;;;;;;;;;;;3.00;97.90;;;;;;5009265;28;19913;-70
2021/04/18 06:45:20;;;;;;;;;;;3.00;98.00;;;;;;5005238;28;19928;-70
2021/04/18 06:47:46;;;;;;;;;;;3.00;98.00;;;;;;5007748;28;19922;-70
2021/04/18 06:50:12;;;;;;;;;;;3.00;97.90;;;;;;5009145;28;19922;-71
2021/04/18 06:52:38;;;;;;;;;;;3.00;98.00;;;;;;5007016;28;20291;-71
2021/04/18 06:55:04;;;;;;;;;;;2.90;97.80;;;;;;5028047;28;19935;-71
2021/04/18 06:57:30;;;;;;;;;;;3.00;97.80;;;;;;5027949;28;20009;-71
2021/04/18 06:59:55;;;;;;;;;;;3.20;98.00;;;;;;5028673;28;20114;-71
2021/04/18 07:02:25;;;;;;;;;;;3.10;98.00;;;;;;5028071;28;19921;-71
2021/04/18 07:05:04;;;;;;;;;;;3.10;97.90;;;;;;5028690;28;20020;-71
2021/04/18 07:07:34;;;;;;;;;;;3.40;97.70;;;;;;5025936;28;19924;-71
2021/04/18 07:10:00;;;;;;;;;;;3.70;98.00;;;;;;5027262;28;19920;-70
2021/04/18 07:12:31;;;;;;;;;;;3.80;98.00;;;;;;5026467;28;20282;-69
2021/04/18 07:14:57;;;;;;;;;;;3.70;97.70;;;;;;5027608;28;19957;-69
2021/04/18 07:17:23;;;;;;;;;;;3.90;97.90;;;;;;5029127;28;19920;-71
2021/04/18 07:19:50;;;;;;;;;;;4.00;98.00;;;;;;5027330;28;21482;-69
2021/04/18 07:22:17;;;;;;;;;;;3.90;98.00;;;;;;5026787;28;20317;-71
2021/04/18 07:24:53;;;;;;;;;;;3.90;97.80;;;;;;5026757;28;20218;-72
2021/04/18 07:27:19;;;;;;;;;;;3.80;97.80;;;;;;5027591;28;19975;-72
2021/04/18 07:29:55;;;;;;;;;;;3.80;97.60;;;;;;5028871;28;19996;-71
2021/04/18 07:32:24;;;;;;;;;;;4.10;98.00;;;;;;5026534;28;19921;-71
2021/04/18 07:34:50;;;;;;;;;;;4.20;98.00;;;;;;5026289;28;19913;-72
2021/04/18 07:37:17;;;;;;;;;;;4.40;98.00;;;;;;5026304;28;19943;-71
2021/04/18 07:39:44;;;;;;;;;;;4.60;98.00;;;;;;5006502;28;20359;-70
2021/04/18 07:42:24;;;;;;;;;;;4.60;97.90;;;;;;5028837;28;19952;-71
2021/04/18 07:44:51;;;;;;;;;;;4.60;97.60;;;;;;5027381;28;20249;-72
2021/04/18 07:47:16;;;;;;;;;;;4.70;97.70;;;;;;5026208;28;19925;-71
2021/04/18 07:49:42;;;;;;;;;;;4.80;98.00;;;;;;5027008;28;19928;-72
2021/04/18 07:52:07;;;;;;;;;;;4.90;98.00;;;;;;5023282;28;20033;-71
2021/04/18 07:54:34;;;;;;;;;;;5.00;98.00;;;;;;5025367;28;19933;-71
2021/04/18 07:57:00;;;;;;;;;;;5.10;98.00;;;;;;5027320;28;19960;-71
2021/04/18 07:59:25;;;;;;;;;;;5.10;97.20;;;;;;5027185;28;19952;-70
2021/04/18 08:01:51;;;;;;;;;;;5.30;97.30;;;;;;5027209;28;19968;-70
2021/04/18 08:04:17;;;;;;;;;;;5.30;97.30;;;;;;5025818;28;20318;-71
2021/04/18 08:06:45;;;;;;;;;;;5.20;97.10;;;;;;5005031;28;19921;-71
2021/04/18 08:09:21;;;;;;;;;;;5.40;97.50;;;;;;5027341;28;19913;-70
2021/04/18 08:12:07;;;;;;;;;;;5.40;96.70;;;;;;5002128;28;20314;-70
2021/04/18 08:14:32;;;;;;;;;;;5.50;96.00;;;;;;5008850;28;20213;-70
2021/04/18 08:17:04;;;;;;;;;;;5.70;95.80;;;;;;5023631;28;19922;-71
2021/04/18 08:19:29;;;;;;;;;;;5.70;95.80;;;;;;5025653;28;19932;-71
2021/04/18 08:21:56;;;;;;;;;;;5.70;95.40;;;;;;5023150;28;19913;-71
2021/04/18 08:24:22;;;;;;;;;;;5.80;95.50;;;;;;5024156;28;19917;-71
2021/04/18 08:27:07;;;;;;;;;;;5.90;95.30;;;;;;5027561;28;19920;-71
2021/04/18 08:29:52;;;;;;;;;;;6.00;95.10;;;;;;5026214;28;19920;-70
2021/04/18 08:32:18;;;;;;;;;;;6.10;95.60;;;;;;5027744;28;20310;-70
2021/04/18 08:34:44;;;;;;;;;;;6.20;94.90;;;;;;5027230;28;19928;-70
2021/04/18 08:37:14;;;;;;;;;;;5.70;94.50;;;;;;5027357;28;19948;-69
2021/04/18 08:39:42;;;;;;;;;;;5.60;95.50;;;;;;5031221;28;19936;-69
2021/04/18 08:42:09;;;;;;;;;;;5.80;95.70;;;;;;5030610;28;19920;-71
2021/04/18 08:44:35;;;;;;;;;;;5.80;95.50;;;;;;5030401;28;20016;-70
2021/04/18 08:47:01;;;;;;;;;;;5.80;95.30;;;;;;5032941;28;20003;-70
2021/04/18 08:49:38;;;;;;;;;;;5.80;95.00;;;;;;5030707;28;19913;-69
2021/04/18 08:52:11;;;;;;;;;;;5.80;94.80;;;;;;5036272;28;20016;-71
2021/04/18 08:54:40;;;;;;;;;;;6.00;94.10;;;;;;5017058;28;19975;-70
2021/04/18 08:57:09;;;;;;;;;;;6.10;94.70;;;;;;4996328;28;19921;-70
2021/04/18 08:59:35;;;;;;;;;;;6.30;94.30;;;;;;5012522;28;19997;-70
2021/04/18 09:02:04;;;;;;;;;;;6.70;94.30;;;;;;4991329;28;19922;-70
2021/04/18 09:04:31;;;;;;;;;;;6.90;92.80;;;;;;5008896;28;19922;-71
2021/04/18 09:06:56;;;;;;;;;;;6.90;92.40;;;;;;5003507;28;20405;-71
2021/04/18 09:09:22;;;;;;;;;;;7.00;91.60;;;;;;5005850;28;19940;-70
2021/04/18 09:11:48;;;;;;;;;;;6.80;91.10;;;;;;5004771;28;20376;-69
2021/04/18 09:14:21;;;;;;;;;;;6.70;93.10;;;;;;5005266;28;20212;-71
2021/04/18 09:16:46;;;;;;;;;;;6.50;91.70;;;;;;5007795;28;20298;-71
2021/04/18 09:19:28;;;;;;;;;;;6.40;92.40;;;;;;5007331;28;19932;-70
2021/04/18 09:22:14;;;;;;;;;;;6.20;92.20;;;;;;4994003;28;19921;-70
2021/04/18 09:24:43;;;;;;;;;;;5.70;93.60;;;;;;5007010;28;19914;-70
2021/04/18 09:27:10;;;;;;;;;;;5.50;93.90;;;;;;5004254;28;19921;-71
2021/04/18 09:29:43;;;;;;;;;;;5.70;94.60;;;;;;5007863;28;19917;-70
2021/04/18 09:32:10;;;;;;;;;;;5.70;94.30;;;;;;5001153;28;19921;-71
2021/04/18 09:34:37;;;;;;;;;;;5.90;95.10;;;;;;5010046;28;19914;-70
2021/04/18 09:37:06;;;;;;;;;;;6.00;94.60;;;;;;5012799;28;19918;-71
2021/04/18 09:39:33;;;;;;;;;;;6.00;95.50;;;;;;5011618;28;19926;-71
2021/04/18 09:41:59;;;;;;;;;;;6.10;95.80;;;;;;4993303;28;20180;-71
2021/04/18 09:44:37;;;;;;;;;;;6.20;95.60;;;;;;5013164;28;19913;-70
2021/04/18 09:47:07;;;;;;;;;;;6.00;95.10;;;;;;4993677;28;20353;-71
2021/04/18 09:49:43;;;;;;;;;;;6.00;95.70;;;;;;4994451;28;20406;-70
2021/04/18 09:52:08;;;;;;;;;;;6.20;95.40;;;;;;5010996;28;19922;-70
2021/04/18 09:54:37;;;;;;;;;;;6.20;95.70;;;;;;5008153;28;19929;-71
2021/04/18 09:57:15;;;;;;;;;;;6.20;95.10;;;;;;5008691;28;19969;-71
2021/04/18 09:59:41;;;;;;;;;;;6.20;95.40;;;;;;5008126;28;20207;-71
2021/04/18 10:02:13;;;;;;;;;;;6.40;94.20;;;;;;5007117;28;20336;-70
2021/04/18 10:04:41;;;;;;;;;;;6.70;94.90;;;;;;5008155;28;19913;-70
2021/04/18 10:07:07;;;;;;;;;;;7.20;93.40;;;;;;5006623;28;19952;-68
2021/04/18 10:09:55;;;;;;;;;;;7.00;92.10;;;;;;5010625;28;19960;-67
2021/04/18 10:12:21;;;;;;;;;;;7.00;93.00;;;;;;5008928;28;20020;-68
2021/04/18 10:15:00;;;;;;;;;;;7.10;91.40;;;;;;5007186;28;20301;-68
2021/04/18 10:17:33;;;;;;;;;;;7.40;92.20;;;;;;5009124;28;20219;-70
2021/04/18 10:20:03;;;;;;;;;;;7.60;91.70;;;;;;5008161;28;19933;-70
2021/04/18 10:22:28;;;;;;;;;;;8.00;89.50;;;;;;5008668;28;19918;-69
2021/04/18 10:24:54;;;;;;;;;;;7.80;89.30;;;;;;5010452;28;20008;-69
2021/04/18 10:27:26;;;;;;;;;;;7.90;89.20;;;;;;4992410;28;19968;-70
2021/04/18 10:29:53;;;;;;;;;;;7.70;89.10;;;;;;5009199;28;19914;-70
2021/04/18 10:32:20;;;;;;;;;;;7.20;89.70;;;;;;5007879;28;19956;-69
2021/04/18 10:34:46;;;;;;;;;;;6.90;91.00;;;;;;5006778;28;20005;-69
2021/04/18 10:37:12;;;;;;;;;;;6.80;91.20;;;;;;5008343;28;19913;-70
2021/04/18 10:39:38;;;;;;;;;;;6.60;92.40;;;;;;5009178;28;20270;-70
2021/04/18 10:42:04;;;;;;;;;;;6.50;92.30;;;;;;5006953;28;20326;-70
2021/04/18 10:44:30;;;;;;;;;;;6.20;92.80;;;;;;5008395;28;19921;-69
2021/04/18 10:46:57;;;;;;;;;;;6.30;93.70;;;;;;4990848;28;20238;-71
2021/04/18 10:49:26;;;;;;;;;;;6.40;93.10;;;;;;5007969;28;20329;-69
2021/04/18 10:51:52;;;;;;;;;;;6.60;93.40;;;;;;5006593;28;19917;-69
2021/04/18 10:54:18;;;;;;;;;;;6.80;92.60;;;;;;4997921;28;19921;-70
2021/04/18 10:56:48;;;;;;;;;;;6.60;92.60;;;;;;5014451;28;20302;-69
2021/04/18 10:59:13;;;;;;;;;;;6.40;92.70;;;;;;5012937;28;19918;-69
2021/04/18 11:01:39;;;;;;;;;;;6.40;93.90;;;;;;5016084;28;19922;-69
2021/04/18 11:04:05;;;;;;;;;;;6.50;93.90;;;;;;5017125;28;20364;-68
2021/04/18 11:06:30;;;;;;;;;;;6.40;93.10;;;;;;5012616;28;19960;-69
2021/04/18 11:08:56;;;;;;;;;;;6.20;93.70;;;;;;5015617;28;19953;-68
2021/04/18 11:11:24;;;;;;;;;;;6.30;94.40;;;;;;5017221;28;19976;-68
2021/04/18 11:13:50;;;;;;;;;;;6.30;94.00;;;;;;5010462;28;19913;-69
2021/04/18 11:16:15;;;;;;;;;;;6.50;93.60;;;;;;5009237;28;19926;-69
2021/04/18 11:18:41;;;;;;;;;;;6.70;92.50;;;;;;5008314;28;19925;-69
2021/04/18 11:21:06;;;;;;;;;;;7.00;91.50;;;;;;5007759;28;19922;-69
2021/04/18 11:23:34;;;;;;;;;;;7.20;90.60;;;;;;5009023;28;19967;-69
2021/04/18 11:26:00;;;;;;;;;;;7.70;90.90;;;;;;5009305;28;19922;-69
2021/04/18 11:28:25;;;;;;;;;;;7.80;87.70;;;;;;5009549;28;20406;-69
2021/04/18 11:30:51;;;;;;;;;;;7.80;88.60;;;;;;5014493;28;19921;-69
2021/04/18 11:33:17;;;;;;;;;;;8.20;87.40;;;;;;5018024;28;19943;-70
2021/04/18 11:35:42;;;;;;;;;;;8.20;85.90;;;;;;5003327;28;20515;-69
2021/04/18 11:38:08;;;;;;;;;;;8.20;85.30;;;;;;5009951;28;19966;-69
2021/04/18 11:40:35;;;;;;;;;;;8.20;85.20;;;;;;5012741;28;19921;-69
2021/04/18 11:43:01;;;;;;;;;;;8.40;86.30;;;;;;5005733;28;19917;-69
2021/04/18 11:45:27;;;;;;;;;;;8.30;85.50;;;;;;5013066;28;19924;-69
2021/04/18 11:47:53;;;;;;;;;;;7.70;87.00;;;;;;5020983;28;20000;-69
2021/04/18 11:50:18;;;;;;;;;;;7.30;87.80;;;;;;5012491;28;19913;-69
2021/04/18 11:52:44;;;;;;;;;;;6.90;89.00;;;;;;5011324;28;19925;-69
2021/04/18 11:55:11;;;;;;;;;;;6.70;89.30;;;;;;5009460;28;19922;-69
2021/04/18 11:57:39;;;;;;;;;;;6.60;90.40;;;;;;5011990;28;19921;-69
2021/04/18 12:00:05;;;;;;;;;;;6.70;90.00;;;;;;5017000;28;19975;-69
2021/04/18 12:02:31;;;;;;;;;;;6.60;89.80;;;;;;5018806;28;19917;-69
2021/04/18 12:04:59;;;;;;;;;;;6.60;91.40;;;;;;5020172;28;20357;-69
2021/04/18 12:07:25;;;;;;;;;;;6.90;91.30;;;;;;5020733;28;19921;-70
2021/04/18 12:09:53;;;;;;;;;;;7.30;91.00;;;;;;5018712;28;19913;-70
2021/04/18 12:12:19;;;;;;;;;;;7.60;88.10;;;;;;5011324;28;20009;-69
2021/04/18 12:14:45;;;;;;;;;;;7.50;87.00;;;;;;5016395;28;19972;-69
2021/04/18 12:17:11;;;;;;;;;;;7.40;88.20;;;;;;5022549;28;21289;-69
2021/04/18 12:19:36;;;;;;;;;;;7.40;89.20;;;;;;5017007;28;20004;-69
2021/04/18 12:22:02;;;;;;;;;;;7.40;88.20;;;;;;5017401;28;20219;-69
2021/04/18 12:24:28;;;;;;;;;;;7.50;88.50;;;;;;5018162;28;19979;-69
2021/04/18 12:26:56;;;;;;;;;;;7.90;87.60;;;;;;5019251;28;19960;-69
2021/04/18 12:29:22;;;;;;;;;;;8.30;86.00;;;;;;5024886;28;19948;-69
2021/04/18 12:31:47;;;;;;;;;;;8.70;85.00;;;;;;5027215;28;19968;-69
2021/04/18 12:34:13;;;;;;;;;;;9.10;82.90;;;;;;5019395;28;19975;-69
2021/04/18 12:36:38;;;;;;;;;;;9.20;81.80;;;;;;5024984;28;19914;-69
2021/04/18 12:39:05;;;;;;;;;;;8.90;81.40;;;;;;5018579;28;19925;-69
2021/04/18 12:41:30;;;;;;;;;;;8.80;84.00;;;;;;5010340;28;19913;-69
2021/04/18 12:43:56;;;;;;;;;;;8.80;80.80;;;;;;5026863;28;20275;-69
2021/04/18 12:46:21;;;;;;;;;;;8.60;82.30;;;;;;5022907;28;19971;-69
2021/04/18 12:48:47;;;;;;;;;;;8.70;82.30;;;;;;5025881;28;19929;-69
2021/04/18 12:51:13;;;;;;;;;;;8.70;80.10;;;;;;5028635;28;19921;-69
2021/04/18 12:53:38;;;;;;;;;;;8.80;80.30;;;;;;5017722;28;19929;-69
2021/04/18 12:56:04;;;;;;;;;;;8.80;79.20;;;;;;5025175;28;19972;-69
2021/04/18 12:58:30;;;;;;;;;;;8.60;81.30;;;;;;5022978;28;19940;-69
2021/04/18 13:00:55;;;;;;;;;;;8.70;82.50;;;;;;5023816;28;19987;-68
2021/04/18 13:03:21;;;;;;;;;;;9.00;81.50;;;;;;5028786;28;19921;-68
2021/04/18 13:05:47;;;;;;;;;;;9.30;79.10;;;;;;5013113;28;20016;-68
2021/04/18 13:08:12;;;;;;;;;;;9.10;79.30;;;;;;5019182;28;20283;-67
2021/04/18 13:10:38;;;;;;;;;;;8.90;79.00;;;;;;5023698;28;20012;-68
2021/04/18 13:13:03;;;;;;;;;;;8.80;81.20;;;;;;5021966;28;20004;-68
2021/04/18 13:15:32;;;;;;;;;;;8.80;81.40;;;;;;5022721;28;19918;-69
2021/04/18 13:17:57;;;;;;;;;;;9.00;80.40;;;;;;5025987;28;19945;-69
2021/04/18 13:20:23;;;;;;;;;;;9.80;79.90;;;;;;5027558;28;19913;-68
2021/04/18 13:22:52;;;;;;;;;;;10.70;76.30;;;;;;5020579;28;19928;-71
2021/04/18 13:25:18;;;;;;;;;;;10.80;73.80;;;;;;5027433;28;20003;-68
2021/04/18 13:27:43;;;;;;;;;;;11.20;77.10;;;;;;5000880;28;19996;-69
2021/04/18 13:30:10;;;;;;;;;;;11.30;73.50;;;;;;5019383;28;20020;-69
2021/04/18 13:32:36;;;;;;;;;;;10.70;74.20;;;;;;5021446;28;19924;-69
2021/04/18 13:35:02;;;;;;;;;;;10.30;75.70;;;;;;5027571;28;20326;-69
2021/04/18 13:37:28;;;;;;;;;;;10.20;75.10;;;;;;5026830;28;19920;-69
2021/04/18 13:39:53;;;;;;;;;;;9.90;76.90;;;;;;5020953;28;19925;-69
2021/04/18 13:42:19;;;;;;;;;;;9.90;77.20;;;;;;5022817;28;20214;-69
2021/04/18 13:44:44;;;;;;;;;;;10.10;77.50;;;;;;5024814;28;19913;-69
2021/04/18 13:47:10;;;;;;;;;;;9.70;76.70;;;;;;5019839;28;20008;-68
2021/04/18 13:49:35;;;;;;;;;;;9.40;78.00;;;;;;5018009;28;19922;-69
2021/04/18 13:52:01;;;;;;;;;;;9.20;77.50;;;;;;5000674;28;21302;-69
2021/04/18 13:54:27;;;;;;;;;;;8.90;78.40;;;;;;5025419;28;20322;-70
2021/04/18 13:56:52;;;;;;;;;;;8.70;79.70;;;;;;5026254;28;19921;-68
2021/04/18 13:59:18;;;;;;;;;;;8.50;81.40;;;;;;5022283;28;19937;-69
2021/04/18 14:01:43;;;;;;;;;;;8.60;81.20;;;;;;5024502;28;19979;-68
2021/04/18 14:04:09;;;;;;;;;;;8.60;79.70;;;;;;5026131;28;19921;-69
2021/04/18 14:06:34;;;;;;;;;;;8.50;79.90;;;;;;5022720;28;19921;-69
2021/04/18 14:09:00;;;;;;;;;;;8.50;81.80;;;;;;5020679;28;20337;-69
2021/04/18 14:11:25;;;;;;;;;;;8.30;82.00;;;;;;5026696;28;20470;-68
2021/04/18 14:13:51;;;;;;;;;;;8.60;81.90;;;;;;5022786;28;20221;-69
2021/04/18 14:16:17;;;;;;;;;;;8.80;81.40;;;;;;5019989;28;19917;-69
2021/04/18 14:18:42;;;;;;;;;;;9.00;80.10;;;;;;5024752;28;19917;-69
2021/04/18 14:21:08;;;;;;;;;;;9.10;79.50;;;;;;5021217;28;20195;-69
2021/04/18 14:23:34;;;;;;;;;;;9.10;79.50;;;;;;5024627;28;19928;-69
2021/04/18 14:26:00;;;;;;;;;;;9.30;78.90;;;;;;5019055;28;19921;-69